Time;durP1;ratioP1;P1;durP2;ratioP2;P2;SDS_P1;SDS_P2;PMS_P1;PMS_P2;Temp;Humidity;BMP_temperature;BMP_pressure;BME280_temperature;BME280_humidity;BME280_pressure;Samples;Min_cycle;Max_cycle;Signal;HPM_P1;HPM_P2
2023/07/01 00:00:41;;;;;;;15.25;6.03;;;20.70;99.90;;;;;;7396904;19;19953;-73
2023/07/01 00:03:07;;;;;;;15.68;5.95;;;20.70;99.90;;;;;;7398378;19;20342;-72
2023/07/01 00:05:34;;;;;;;20.52;6.90;;;20.50;99.90;;;;;;7393179;19;19974;-73
2023/07/01 00:08:00;;;;;;;18.60;6.60;;;20.40;99.90;;;;;;7392725;19;20004;-73
2023/07/01 00:10:25;;;;;;;25.17;7.85;;;20.20;99.90;;;;;;7396388;19;19934;-74
2023/07/01 00:12:52;;;;;;;24.33;8.57;;;20.10;99.90;;;;;;7394832;19;19926;-73
2023/07/01 00:15:18;;;;;;;23.90;7.13;;;20.00;99.90;;;;;;7397324;19;19911;-73
2023/07/01 00:17:44;;;;;;;11.38;5.05;;;20.00;99.90;;;;;;7399804;19;19922;-72
2023/07/01 00:20:11;;;;;;;15.63;5.75;;;19.80;99.90;;;;;;7395476;19;19962;-72
2023/07/01 00:22:36;;;;;;;17.88;5.85;;;19.70;99.90;;;;;;7394965;19;19918;-73
2023/07/01 00:25:03;;;;;;;16.83;7.10;;;19.50;99.90;;;;;;7398241;19;19914;-73
2023/07/01 00:27:28;;;;;;;14.68;6.43;;;19.50;99.90;;;;;;7399143;19;19919;-72
2023/07/01 00:29:54;;;;;;;15.25;6.03;;;19.80;99.90;;;;;;7398996;19;19914;-73
2023/07/01 00:32:20;;;;;;;11.50;5.55;;;19.90;99.90;;;;;;7397093;19;19915;-72
2023/07/01 00:34:46;;;;;;;20.35;6.28;;;19.80;99.90;;;;;;7400609;19;20247;-72
2023/07/01 00:37:11;;;;;;;14.50;5.35;;;19.60;99.90;;;;;;7401165;19;19917;-71
2023/07/01 00:39:37;;;;;;;14.25;5.47;;;19.80;99.90;;;;;;7400077;19;20284;-71
2023/07/01 00:42:03;;;;;;;14.48;5.82;;;20.00;99.90;;;;;;7399563;19;19927;-71
2023/07/01 00:44:29;;;;;;;14.32;7.00;;;19.70;99.90;;;;;;7399023;19;20072;-72
2023/07/01 00:46:55;;;;;;;11.88;5.35;;;19.40;99.90;;;;;;7397234;19;19922;-72
2023/07/01 00:49:22;;;;;;;;;;;19.60;99.90;;;;;;7401508;19;19922;-72
2023/07/01 00:51:47;;;;;;;13.95;6.55;;;20.00;99.90;;;;;;7401262;19;19962;-71
2023/07/01 00:54:14;;;;;;;15.95;6.38;;;19.90;99.90;;;;;;7398030;19;20243;-72
2023/07/01 00:56:40;;;;;;;17.95;5.90;;;19.20;99.90;;;;;;7394775;19;19917;-72
2023/07/01 00:59:06;;;;;;;14.05;7.60;;;19.60;99.90;;;;;;7399891;19;19994;-72
2023/07/01 01:01:39;;;;;;;14.77;6.07;;;19.50;99.90;;;;;;7394098;19;19928;-71
2023/07/01 01:04:29;;;;;;;12.52;5.82;;;19.60;99.90;;;;;;7397775;19;19930;-71
2023/07/01 01:07:24;;;;;;;10.68;5.53;;;19.00;99.90;;;;;;7397340;19;19943;-71
2023/07/01 01:09:57;;;;;;;15.13;7.60;;;19.40;99.90;;;;;;7395995;19;19921;-71
2023/07/01 01:12:23;;;;;;;;;;;20.00;99.90;;;;;;7400059;19;19945;-70
2023/07/01 01:14:51;;;;;;;11.93;5.55;;;19.80;99.90;;;;;;7399613;19;19929;-71
2023/07/01 01:17:18;;;;;;;14.02;6.32;;;19.40;99.90;;;;;;7399484;19;19914;-72
2023/07/01 01:19:52;;;;;;;9.43;5.72;;;20.00;99.90;;;;;;7397989;19;19922;-70
2023/07/01 01:22:33;;;;;;;13.43;5.45;;;20.00;99.90;;;;;;7398178;19;20009;-73
2023/07/01 01:25:08;;;;;;;10.80;5.50;;;19.30;99.90;;;;;;7398528;19;19921;-73
2023/07/01 01:27:39;;;;;;;14.27;5.80;;;19.50;99.90;;;;;;7396028;19;19915;-73
2023/07/01 01:30:06;;;;;;;14.15;5.93;;;19.70;99.90;;;;;;7398870;19;19982;-72
2023/07/01 01:32:35;;;;;;;14.75;6.63;;;19.50;99.90;;;;;;7401627;19;19906;-72
2023/07/01 01:35:02;;;;;;;14.40;6.57;;;20.00;99.90;;;;;;7401734;19;19926;-72
2023/07/01 01:37:48;;;;;;;13.65;6.70;;;19.90;99.90;;;;;;7398959;19;19929;-72
2023/07/01 01:40:40;;;;;;;12.05;5.47;;;19.60;99.90;;;;;;7396827;19;19911;-72
2023/07/01 01:43:27;;;;;;;10.98;5.85;;;19.40;99.90;;;;;;7396212;19;19929;-73
2023/07/01 01:45:54;;;;;;;9.20;5.00;;;19.80;99.90;;;;;;7399846;19;19927;-72
2023/07/01 01:48:21;;;;;;;13.15;5.35;;;19.10;99.90;;;;;;7398132;19;19938;-73
2023/07/01 01:50:51;;;;;;;10.25;5.97;;;19.10;99.90;;;;;;7401283;19;19913;-73
2023/07/01 01:53:18;;;;;;;15.38;6.63;;;19.80;99.90;;;;;;7398208;19;19921;-73
2023/07/01 01:55:45;;;;;;;12.68;5.40;;;19.40;99.90;;;;;;7401186;19;19923;-73
2023/07/01 01:58:11;;;;;;;13.23;4.85;;;19.10;99.90;;;;;;7398936;19;19939;-72
2023/07/01 02:00:36;;;;;;;10.18;4.50;;;19.60;99.90;;;;;;7398673;19;19918;-73
2023/07/01 02:03:02;;;;;;;11.50;6.38;;;19.10;99.90;;;;;;7398435;19;19943;-73
2023/07/01 02:05:28;;;;;;;8.50;4.68;;;20.00;99.90;;;;;;7398369;19;19929;-72
2023/07/01 02:07:55;;;;;;;9.63;4.97;;;19.50;99.90;;;;;;7398535;19;19926;-73
2023/07/01 02:10:20;;;;;;;;;;;19.80;99.90;;;;;;7397548;19;20251;-73
2023/07/01 02:12:46;;;;;;;10.82;4.25;;;19.10;99.90;;;;;;7366619;19;19915;-72
2023/07/01 02:15:12;;;;;;;11.13;5.00;;;19.20;99.90;;;;;;7397430;19;19933;-73
2023/07/01 02:17:38;;;;;;;10.07;4.85;;;19.40;99.90;;;;;;7398551;19;19936;-74
2023/07/01 02:20:05;;;;;;;7.63;4.68;;;19.40;99.90;;;;;;7398137;19;19915;-73
2023/07/01 02:22:31;;;;;;;9.00;4.22;;;19.30;99.90;;;;;;7395348;19;19932;-73
2023/07/01 02:24:57;;;;;;;10.93;4.13;;;19.70;99.90;;;;;;7397824;19;20260;-73
2023/07/01 02:27:22;;;;;;;8.02;4.25;;;19.50;99.90;;;;;;7397512;19;19952;-73
2023/07/01 02:29:49;;;;;;;;;;;19.70;99.90;;;;;;7402051;19;20001;-74
2023/07/01 02:32:15;;;;;;;8.77;4.32;;;19.60;99.90;;;;;;7394872;19;19954;-72
2023/07/01 02:34:41;;;;;;;10.13;4.80;;;19.40;99.90;;;;;;7394377;19;19918;-74
2023/07/01 02:37:06;;;;;;;12.55;4.93;;;19.80;99.90;;;;;;7394649;19;19957;-74
2023/07/01 02:39:32;;;;;;;8.15;4.10;;;19.40;99.90;;;;;;7397912;19;19983;-73
2023/07/01 02:41:58;;;;;;;9.32;4.57;;;19.70;99.90;;;;;;7396448;19;19947;-73
2023/07/01 02:44:24;;;;;;;10.13;4.35;;;19.60;99.90;;;;;;7394472;19;20339;-73
2023/07/01 02:46:50;;;;;;;7.78;4.15;;;19.40;99.90;;;;;;7396325;19;19983;-73
2023/07/01 02:49:15;;;;;;;9.43;3.85;;;19.50;99.90;;;;;;7400721;19;19998;-73
2023/07/01 02:51:41;;;;;;;8.25;4.80;;;19.80;99.90;;;;;;7403978;19;20244;-73
2023/07/01 02:54:07;;;;;;;8.60;3.65;;;19.70;99.90;;;;;;7402255;19;20256;-72
2023/07/01 02:56:33;;;;;;;11.90;4.30;;;19.70;99.90;;;;;;7404375;19;19927;-71
2023/07/01 02:58:59;;;;;;;8.57;4.15;;;19.30;99.90;;;;;;7403476;19;20364;-73
2023/07/01 03:01:25;;;;;;;8.48;3.75;;;19.20;99.90;;;;;;7399667;19;20280;-74
2023/07/01 03:03:51;;;;;;;9.88;4.82;;;19.80;99.90;;;;;;7405486;19;20466;-73
2023/07/01 03:06:17;;;;;;;9.70;4.60;;;19.40;99.90;;;;;;7401467;19;19932;-74
2023/07/01 03:08:43;;;;;;;8.45;5.22;;;19.80;99.90;;;;;;7402402;19;19919;-72
2023/07/01 03:11:09;;;;;;;8.95;4.38;;;19.90;99.90;;;;;;7404601;19;20346;-73
2023/07/01 03:13:37;;;;;;;12.98;5.10;;;19.40;99.90;;;;;;7405565;19;19960;-72
2023/07/01 03:16:06;;;;;;;8.10;4.05;;;19.70;99.90;;;;;;7401758;19;20083;-73
2023/07/01 03:18:32;;;;;;;9.18;3.70;;;19.50;99.90;;;;;;7402146;19;20458;-73
2023/07/01 03:21:00;;;;;;;;;;;19.30;99.90;;;;;;7405959;19;19919;-73
2023/07/01 03:23:30;;;;;;;10.77;4.47;;;19.50;99.90;;;;;;7399133;19;19918;-73
2023/07/01 03:25:56;;;;;;;7.40;3.83;;;19.40;99.90;;;;;;7401174;19;19907;-73
2023/07/01 03:28:22;;;;;;;9.27;5.15;;;19.30;99.90;;;;;;7400051;19;22751;-74
2023/07/01 03:30:48;;;;;;;8.45;4.63;;;19.20;99.90;;;;;;7403526;19;19914;-73
2023/07/01 03:33:17;;;;;;;10.85;4.38;;;19.00;99.90;;;;;;7400552;19;19919;-74
2023/07/01 03:35:43;;;;;;;9.10;4.55;;;19.00;99.90;;;;;;7404169;19;19911;-73
2023/07/01 03:38:09;;;;;;;8.00;4.60;;;19.00;99.90;;;;;;7400835;19;19925;-73
2023/07/01 03:40:38;;;;;;;9.88;5.07;;;19.00;99.90;;;;;;7404530;19;19926;-73
2023/07/01 03:43:04;;;;;;;10.73;5.35;;;18.90;99.90;;;;;;7404033;19;21446;-73
2023/07/01 03:45:30;;;;;;;10.95;5.05;;;18.90;99.90;;;;;;7405515;19;19923;-72
2023/07/01 03:47:56;;;;;;;9.35;4.88;;;18.80;99.90;;;;;;7399461;19;20360;-72
2023/07/01 03:50:22;;;;;;;8.93;4.65;;;18.70;99.90;;;;;;7402324;19;19930;-73
2023/07/01 03:52:47;;;;;;;10.73;4.68;;;18.80;99.90;;;;;;7393602;19;19911;-72
2023/07/01 03:55:14;;;;;;;10.05;4.72;;;18.90;99.90;;;;;;7405112;19;19918;-72
2023/07/01 03:57:42;;;;;;;11.57;5.63;;;19.10;99.90;;;;;;7403366;19;19914;-73
2023/07/01 04:00:17;;;;;;;9.00;5.30;;;19.30;99.90;;;;;;7404051;19;19918;-73
2023/07/01 04:02:47;;;;;;;13.13;4.85;;;19.40;99.90;;;;;;7403600;19;19914;-72
2023/07/01 04:05:14;;;;;;;9.70;5.40;;;19.40;99.90;;;;;;7400076;19;19918;-72
2023/07/01 04:07:42;;;;;;;7.68;4.47;;;19.50;99.90;;;;;;7405030;19;19915;-72
2023/07/01 04:10:09;;;;;;;10.50;5.32;;;19.50;99.90;;;;;;7399096;19;19939;-73
2023/07/01 04:12:35;;;;;;;10.88;5.22;;;19.50;99.90;;;;;;7404305;19;19915;-72
2023/07/01 04:15:03;;;;;;;;;;;19.70;99.90;;;;;;7408429;19;19968;-73
2023/07/01 04:17:29;;;;;;;9.70;4.65;;;19.70;99.90;;;;;;7380460;19;19987;-73
2023/07/01 04:19:55;;;;;;;;;;;19.50;99.90;;;;;;7405074;19;19911;-72
2023/07/01 04:22:22;;;;;;;11.10;5.30;;;19.60;99.90;;;;;;7401520;19;19938;-73
2023/07/01 04:24:48;;;;;;;9.13;4.65;;;19.70;99.90;;;;;;7402349;19;20398;-72
2023/07/01 04:27:14;;;;;;;10.48;5.75;;;19.70;99.90;;;;;;7403359;19;20013;-73
2023/07/01 04:29:40;;;;;;;10.13;5.78;;;19.80;99.90;;;;;;7403836;19;19918;-72
2023/07/01 04:32:06;;;;;;;13.35;5.95;;;19.90;99.90;;;;;;7399795;19;19929;-72
2023/07/01 04:34:32;;;;;;;9.52;5.68;;;19.90;99.90;;;;;;7402692;19;19918;-72
2023/07/01 04:36:57;;;;;;;11.57;5.47;;;19.90;99.90;;;;;;7402058;19;19958;-72
2023/07/01 04:39:24;;;;;;;10.10;5.32;;;19.90;99.90;;;;;;7400774;19;19926;-72
2023/07/01 04:41:50;;;;;;;12.20;5.38;;;19.90;99.90;;;;;;7403537;19;19955;-74
2023/07/01 04:44:16;;;;;;;10.45;5.13;;;19.90;99.90;;;;;;7378585;19;19927;-71
2023/07/01 04:46:42;;;;;;;13.98;5.60;;;20.00;99.90;;;;;;7402875;19;19946;-73
2023/07/01 04:49:10;;;;;;;11.00;5.22;;;20.00;99.90;;;;;;7399050;19;19925;-71
2023/07/01 04:51:39;;;;;;;10.65;6.07;;;20.00;99.90;;;;;;7400719;19;19970;-72
2023/07/01 04:54:05;;;;;;;16.50;5.80;;;20.10;99.90;;;;;;7402499;19;19918;-73
2023/07/01 04:56:31;;;;;;;11.63;5.35;;;20.10;99.90;;;;;;7400315;19;20362;-73
2023/07/01 04:58:57;;;;;;;11.02;5.65;;;20.10;99.90;;;;;;7402852;19;19914;-72
2023/07/01 05:01:23;;;;;;;11.02;6.00;;;20.10;99.90;;;;;;7397710;19;19921;-73
2023/07/01 05:03:48;;;;;;;10.23;5.88;;;20.10;99.90;;;;;;7401440;19;20311;-73
2023/07/01 05:06:14;;;;;;;11.43;5.55;;;20.10;99.90;;;;;;7403103;19;20476;-72
2023/07/01 05:08:40;;;;;;;11.77;5.75;;;20.10;99.90;;;;;;7401999;19;19957;-73
2023/07/01 05:11:06;;;;;;;11.43;6.45;;;20.00;99.90;;;;;;7399933;19;19947;-72
2023/07/01 05:13:32;;;;;;;11.05;5.07;;;19.90;99.90;;;;;;7396850;19;20284;-72
2023/07/01 05:15:58;;;;;;;12.73;6.53;;;19.90;99.90;;;;;;7403008;19;19922;-72
2023/07/01 05:18:24;;;;;;;13.35;5.90;;;19.80;99.90;;;;;;7400710;19;19926;-72
2023/07/01 05:20:50;;;;;;;10.48;6.72;;;19.80;99.90;;;;;;7403280;19;20751;-72
2023/07/01 05:23:15;;;;;;;9.10;5.15;;;19.90;99.90;;;;;;7399885;19;19929;-72
2023/07/01 05:25:41;;;;;;;11.07;6.13;;;19.90;99.90;;;;;;7368633;19;19922;-73
2023/07/01 05:28:07;;;;;;;11.38;6.47;;;20.00;99.90;;;;;;7399702;19;19918;-72
2023/07/01 05:30:33;;;;;;;10.52;5.95;;;20.10;99.90;;;;;;7399007;19;19922;-73
2023/07/01 05:32:59;;;;;;;11.18;6.25;;;20.10;99.90;;;;;;7400315;19;19989;-73
2023/07/01 05:35:25;;;;;;;10.80;5.75;;;20.20;99.90;;;;;;7400041;19;19974;-72
2023/07/01 05:37:52;;;;;;;9.90;6.20;;;20.20;99.90;;;;;;7400852;19;19925;-73
2023/07/01 05:40:18;;;;;;;11.48;6.20;;;20.20;99.90;;;;;;7397314;19;19922;-72
2023/07/01 05:42:46;;;;;;;11.30;6.55;;;20.20;99.90;;;;;;7399010;19;19922;-73
2023/07/01 05:45:12;;;;;;;8.85;5.10;;;20.30;99.90;;;;;;7398312;19;20246;-73
2023/07/01 05:47:38;;;;;;;10.45;5.10;;;20.30;99.90;;;;;;7399156;19;20265;-73
2023/07/01 05:50:05;;;;;;;8.85;4.47;;;20.30;99.90;;;;;;7368037;19;20424;-73
2023/07/01 05:52:31;;;;;;;9.88;4.85;;;20.40;99.90;;;;;;7400540;19;19927;-73
2023/07/01 05:54:57;;;;;;;10.57;5.18;;;20.50;99.90;;;;;;7400305;19;19918;-73
2023/07/01 05:57:22;;;;;;;9.77;4.93;;;20.50;99.90;;;;;;7400707;19;20351;-73
2023/07/01 05:59:49;;;;;;;11.40;4.63;;;20.60;99.90;;;;;;7401488;19;19935;-73
2023/07/01 06:02:15;;;;;;;10.38;5.13;;;20.70;99.90;;;;;;7398651;19;20461;-73
2023/07/01 06:04:41;;;;;;;9.35;4.78;;;20.80;99.90;;;;;;7397400;19;20331;-74
2023/07/01 06:07:07;;;;;;;9.85;5.25;;;20.80;99.90;;;;;;7402569;19;19910;-74
2023/07/01 06:09:33;;;;;;;11.55;5.55;;;20.80;99.90;;;;;;7399405;19;19921;-73
2023/07/01 06:11:58;;;;;;;11.68;5.00;;;20.80;99.90;;;;;;7399465;19;20461;-73
2023/07/01 06:14:24;;;;;;;10.32;5.35;;;20.90;99.90;;;;;;7399525;19;19929;-73
2023/07/01 06:16:50;;;;;;;10.55;5.45;;;20.90;99.90;;;;;;7395857;19;20012;-73
2023/07/01 06:19:16;;;;;;;10.57;5.30;;;21.00;99.90;;;;;;7397588;19;19922;-73
2023/07/01 06:21:42;;;;;;;9.70;5.85;;;21.10;98.30;;;;;;7399874;19;19922;-73
2023/07/01 06:24:07;;;;;;;9.30;5.15;;;21.20;96.70;;;;;;7402390;19;20346;-72
2023/07/01 06:26:33;;;;;;;9.73;4.90;;;21.20;97.10;;;;;;7403500;19;19942;-74
2023/07/01 06:28:59;;;;;;;9.95;5.80;;;21.20;97.90;;;;;;7406141;19;19919;-72
2023/07/01 06:31:25;;;;;;;9.52;5.53;;;21.10;98.10;;;;;;7403014;19;20358;-74
2023/07/01 06:33:51;;;;;;;8.75;4.63;;;21.10;98.00;;;;;;7402209;19;19947;-72
2023/07/01 06:36:17;;;;;;;10.20;5.75;;;21.20;97.90;;;;;;7405048;19;19918;-73
2023/07/01 06:38:46;;;;;;;9.50;6.00;;;21.10;97.60;;;;;;7400686;19;19914;-72
2023/07/01 06:41:12;;;;;;;11.05;5.55;;;21.10;97.10;;;;;;7402147;19;19939;-72
2023/07/01 06:43:39;;;;;;;8.85;4.30;;;21.10;95.70;;;;;;7370226;19;20265;-73
2023/07/01 06:46:06;;;;;;;8.75;5.20;;;21.00;93.80;;;;;;7400797;19;20353;-74
2023/07/01 06:48:32;;;;;;;8.27;4.63;;;21.10;93.10;;;;;;7404718;19;19918;-74
2023/07/01 06:50:58;;;;;;;10.02;4.97;;;21.10;91.80;;;;;;7405381;19;19995;-73
2023/07/01 06:53:24;;;;;;;9.18;4.88;;;21.20;90.80;;;;;;7407185;19;19927;-74
2023/07/01 06:55:49;;;;;;;9.93;4.88;;;21.30;90.30;;;;;;7400877;19;19922;-73
2023/07/01 06:58:16;;;;;;;7.68;4.88;;;21.20;89.70;;;;;;7400249;19;19915;-72
2023/07/01 07:00:42;;;;;;;9.80;4.85;;;21.20;89.80;;;;;;7399318;19;19923;-73
2023/07/01 07:03:07;;;;;;;8.73;4.82;;;21.20;89.80;;;;;;7402589;19;19915;-73
2023/07/01 07:05:33;;;;;;;10.80;4.85;;;21.20;88.60;;;;;;7401083;19;19919;-73
2023/07/01 07:08:00;;;;;;;7.90;4.47;;;21.20;88.10;;;;;;7399532;19;19925;-73
2023/07/01 07:10:25;;;;;;;;;;;21.20;86.60;;;;;;7368697;19;19914;-74
2023/07/01 07:12:51;;;;;;;9.07;4.93;;;21.30;86.40;;;;;;7401518;19;19921;-74
2023/07/01 07:15:17;;;;;;;8.25;5.13;;;21.30;85.20;;;;;;7401621;19;20048;-74
2023/07/01 07:17:43;;;;;;;7.20;4.60;;;21.40;83.50;;;;;;7405122;19;20335;-73
2023/07/01 07:20:09;;;;;;;6.63;4.07;;;21.50;82.90;;;;;;7394221;19;19939;-74
2023/07/01 07:22:35;;;;;;;7.63;4.85;;;21.60;82.40;;;;;;7369418;19;19922;-74
2023/07/01 07:25:00;;;;;;;7.13;4.13;;;21.70;81.20;;;;;;7401566;19;19938;-73
2023/07/01 07:27:26;;;;;;;8.38;4.68;;;21.60;79.60;;;;;;7402930;19;19914;-74
2023/07/01 07:29:52;;;;;;;8.27;4.75;;;21.80;79.70;;;;;;7398195;19;19922;-74
2023/07/01 07:32:18;;;;;;;10.18;4.43;;;22.00;80.40;;;;;;7377029;19;19949;-74
2023/07/01 07:34:44;;;;;;;8.35;4.05;;;22.10;80.00;;;;;;7398257;19;19927;-74
2023/07/01 07:37:10;;;;;;;8.73;5.03;;;22.20;77.70;;;;;;7398761;19;19919;-74
2023/07/01 07:39:36;;;;;;;10.10;4.85;;;22.30;77.40;;;;;;7398930;19;19915;-74
2023/07/01 07:42:02;;;;;;;7.57;4.50;;;22.40;77.00;;;;;;7399073;19;19922;-74
2023/07/01 07:44:32;;;;;;;9.35;4.07;;;22.40;76.60;;;;;;7399975;19;20276;-74
2023/07/01 07:46:58;;;;;;;9.85;4.60;;;22.70;77.00;;;;;;7401267;19;19929;-73
2023/07/01 07:49:24;;;;;;;8.85;4.70;;;22.70;75.50;;;;;;7396670;19;19985;-75
2023/07/01 07:51:50;;;;;;;8.30;4.32;;;22.70;74.80;;;;;;7379549;19;19923;-75
2023/07/01 07:54:16;;;;;;;8.68;4.43;;;23.00;75.20;;;;;;7403664;19;19918;-75
2023/07/01 07:56:42;;;;;;;9.50;4.07;;;23.00;73.90;;;;;;7383576;19;19914;-73
2023/07/01 07:59:07;;;;;;;7.57;4.72;;;23.20;73.50;;;;;;7392493;19;19929;-73
2023/07/01 08:01:33;;;;;;;8.43;4.25;;;23.20;71.60;;;;;;7390974;19;20270;-72
2023/07/01 08:03:59;;;;;;;6.90;3.85;;;23.40;72.40;;;;;;7399159;19;20272;-71
2023/07/01 08:06:25;;;;;;;7.10;4.22;;;23.50;71.40;;;;;;7394167;19;19926;-72
2023/07/01 08:08:52;;;;;;;8.90;4.50;;;23.50;71.20;;;;;;7394158;19;20327;-74
2023/07/01 08:11:18;;;;;;;8.38;4.97;;;23.50;70.70;;;;;;7399483;19;19914;-71
2023/07/01 08:13:44;;;;;;;10.55;5.10;;;23.50;70.20;;;;;;7394223;19;19922;-72
2023/07/01 08:16:12;;;;;;;9.27;4.47;;;23.60;70.10;;;;;;7391884;19;20358;-72
2023/07/01 08:18:39;;;;;;;7.88;4.75;;;23.60;70.10;;;;;;7397864;19;20250;-72
2023/07/01 08:21:04;;;;;;;14.40;4.80;;;23.50;70.50;;;;;;7393653;19;19942;-71
2023/07/01 08:23:30;;;;;;;9.30;4.53;;;23.60;71.20;;;;;;7391479;19;19982;-72
2023/07/01 08:25:56;;;;;;;7.78;3.63;;;23.70;69.50;;;;;;7399832;19;20256;-72
2023/07/01 08:28:22;;;;;;;7.85;4.53;;;23.80;69.20;;;;;;7396710;19;19939;-72
2023/07/01 08:30:47;;;;;;;8.48;4.75;;;23.70;69.40;;;;;;7400062;19;19943;-73
2023/07/01 08:33:13;;;;;;;10.85;4.40;;;23.80;69.20;;;;;;7398539;19;19943;-72
2023/07/01 08:35:39;;;;;;;8.07;4.72;;;23.80;66.90;;;;;;7400899;19;19915;-73
2023/07/01 08:38:05;;;;;;;7.85;4.68;;;23.90;68.30;;;;;;7397505;19;19935;-73
2023/07/01 08:40:30;;;;;;;8.23;4.53;;;24.00;70.90;;;;;;7399402;19;20239;-72
2023/07/01 08:43:04;;;;;;;10.20;4.80;;;24.00;74.70;;;;;;7398944;19;19930;-73
2023/07/01 08:45:31;;;;;;;8.88;5.07;;;24.00;73.00;;;;;;7400598;19;19938;-73
2023/07/01 08:48:00;;;;;;;8.23;4.70;;;24.10;72.80;;;;;;7396446;19;19918;-74
2023/07/01 08:50:31;;;;;;;7.45;4.63;;;23.70;73.80;;;;;;7400099;19;19922;-73
2023/07/01 08:53:04;;;;;;;7.18;4.80;;;23.70;73.40;;;;;;7396760;19;19931;-74
2023/07/01 08:55:31;;;;;;;8.27;4.70;;;23.80;73.30;;;;;;7396363;19;20333;-73
2023/07/01 08:57:57;;;;;;;8.57;4.70;;;23.80;73.10;;;;;;7398775;19;19932;-72
2023/07/01 09:00:23;;;;;;;;;;;24.00;73.30;;;;;;7403062;19;19941;-72
2023/07/01 09:02:49;;;;;;;10.75;4.50;;;24.30;72.90;;;;;;7396520;19;20331;-73
2023/07/01 09:05:14;;;;;;;8.15;4.60;;;24.60;70.90;;;;;;7399178;19;19922;-73
2023/07/01 09:07:41;;;;;;;9.02;4.43;;;24.50;68.60;;;;;;7396239;19;19914;-74
2023/07/01 09:10:07;;;;;;;9.00;4.68;;;24.30;68.70;;;;;;7398450;19;19922;-74
2023/07/01 09:12:33;;;;;;;9.55;4.60;;;24.40;67.70;;;;;;7401394;19;20331;-72
2023/07/01 09:15:07;;;;;;;8.05;4.80;;;24.30;67.60;;;;;;7402474;19;19927;-73
2023/07/01 09:17:38;;;;;;;7.93;4.30;;;24.70;67.40;;;;;;7400024;19;19928;-73
2023/07/01 09:20:07;;;;;;;8.38;4.82;;;25.00;66.80;;;;;;7397750;19;19982;-73
2023/07/01 09:22:35;;;;;;;10.00;4.70;;;25.00;66.00;;;;;;7398425;19;19974;-72
2023/07/01 09:25:02;;;;;;;11.10;5.07;;;25.20;66.40;;;;;;7399187;19;19913;-72
2023/07/01 09:27:49;;;;;;;10.98;5.25;;;25.40;65.90;;;;;;7399777;19;19970;-74
2023/07/01 09:30:24;;;;;;;7.95;4.80;;;25.80;65.70;;;;;;7395745;19;19954;-72
2023/07/01 09:32:50;;;;;;;10.13;5.47;;;26.00;65.30;;;;;;7401722;19;19925;-73
2023/07/01 09:35:16;;;;;;;8.23;4.45;;;26.10;64.60;;;;;;7400083;19;19910;-72
2023/07/01 09:37:42;;;;;;;6.97;4.47;;;26.20;64.20;;;;;;7396125;19;20300;-72
2023/07/01 09:40:24;;;;;;;8.10;4.72;;;26.10;64.20;;;;;;7396041;19;19951;-73
2023/07/01 09:42:55;;;;;;;7.93;4.88;;;26.20;62.50;;;;;;7397319;19;19922;-73
2023/07/01 09:45:21;;;;;;;10.02;5.38;;;26.20;62.90;;;;;;7394939;19;19927;-72
2023/07/01 09:47:52;;;;;;;11.68;5.05;;;26.10;62.20;;;;;;7397483;19;19918;-73
2023/07/01 09:50:26;;;;;;;10.07;4.85;;;26.40;62.60;;;;;;7396662;19;19993;-72
2023/07/01 09:52:54;;;;;;;10.18;5.13;;;26.20;62.50;;;;;;7395097;19;19910;-73
2023/07/01 09:55:21;;;;;;;9.48;5.47;;;26.50;62.50;;;;;;7393275;19;19918;-73
2023/07/01 09:57:47;;;;;;;12.13;5.10;;;26.50;61.60;;;;;;7397666;19;20044;-73
2023/07/01 10:00:15;;;;;;;;;;;26.10;62.10;;;;;;7405463;19;19951;-73
2023/07/01 10:02:45;;;;;;;11.30;5.45;;;26.00;62.90;;;;;;7403210;19;19926;-72
2023/07/01 10:05:12;;;;;;;8.73;4.85;;;26.10;63.50;;;;;;7401544;19;19915;-73
2023/07/01 10:07:42;;;;;;;9.40;5.30;;;26.40;63.50;;;;;;7405099;19;19911;-73
2023/07/01 10:10:16;;;;;;;8.80;5.30;;;26.40;63.00;;;;;;7399961;19;19919;-72
2023/07/01 10:12:44;;;;;;;10.80;5.22;;;26.60;62.10;;;;;;7404140;19;19922;-72
2023/07/01 10:15:11;;;;;;;11.57;4.95;;;26.80;61.90;;;;;;7403539;19;19947;-73
2023/07/01 10:17:52;;;;;;;8.45;5.35;;;26.80;61.50;;;;;;7405006;19;19929;-73
2023/07/01 10:20:38;;;;;;;11.65;5.70;;;26.80;61.70;;;;;;7402436;19;19994;-72
2023/07/01 10:23:04;;;;;;;8.70;6.35;;;26.80;62.50;;;;;;7399662;19;19918;-72
2023/07/01 10:25:37;;;;;;;11.68;5.80;;;26.70;63.80;;;;;;7399319;19;19982;-72
2023/07/01 10:28:04;;;;;;;10.27;4.78;;;26.80;64.10;;;;;;7397231;19;19942;-72
2023/07/01 10:30:45;;;;;;;9.77;6.07;;;27.20;64.10;;;;;;7397306;19;19919;-74
2023/07/01 10:33:35;;;;;;;11.38;7.05;;;27.20;63.60;;;;;;7399891;19;19974;-74
2023/07/01 10:36:02;;;;;;;9.07;5.93;;;26.90;64.60;;;;;;7398542;19;19926;-73
2023/07/01 10:38:32;;;;;;;8.93;5.88;;;26.80;65.20;;;;;;7403399;19;19922;-74
2023/07/01 10:40:59;;;;;;;9.15;5.78;;;26.80;65.60;;;;;;7402629;19;19918;-73
2023/07/01 10:46:24;;;;;;;8.25;4.60;;;27.20;65.10;;;;;;7399229;19;19915;-74
2023/07/01 10:49:02;;;;;;;10.70;6.20;;;27.30;65.30;;;;;;7401336;19;19926;-73
2023/07/01 10:51:31;;;;;;;9.00;6.30;;;27.20;65.00;;;;;;7398376;19;19939;-74
2023/07/01 10:53:59;;;;;;;9.05;5.55;;;27.00;65.40;;;;;;7404390;19;19923;-72
2023/07/01 10:56:30;;;;;;;11.18;6.38;;;27.30;66.20;;;;;;7401894;19;19922;-74
2023/07/01 10:59:26;;;;;;;11.88;5.72;;;27.20;65.50;;;;;;7407267;19;19923;-74
2023/07/01 11:01:56;;;;;;;12.30;5.60;;;27.50;64.30;;;;;;7380930;19;19915;-73
2023/07/01 11:04:23;;;;;;;11.52;5.47;;;27.30;64.00;;;;;;7405088;19;19925;-73
2023/07/01 11:06:54;;;;;;;10.45;5.63;;;27.00;64.60;;;;;;7407678;19;19931;-73
2023/07/01 11:09:32;;;;;;;8.45;5.40;;;27.10;65.10;;;;;;7400919;19;19919;-73
2023/07/01 11:12:01;;;;;;;8.95;6.10;;;27.80;64.20;;;;;;7406583;19;19942;-73
2023/07/01 11:14:45;;;;;;;8.70;5.40;;;27.80;62.40;;;;;;7402577;19;19926;-74
2023/07/01 11:17:17;;;;;;;9.02;5.60;;;27.60;62.30;;;;;;7384677;19;19937;-75
2023/07/01 11:19:46;;;;;;;10.98;6.57;;;27.00;62.70;;;;;;7404058;19;19987;-74
2023/07/01 11:22:13;;;;;;;9.60;5.50;;;27.00;62.90;;;;;;7404030;19;20258;-74
2023/07/01 11:24:40;;;;;;;8.80;5.38;;;27.00;63.50;;;;;;7404304;19;19922;-73
2023/07/01 11:27:11;;;;;;;8.77;4.80;;;27.20;62.60;;;;;;7405638;19;20327;-74
2023/07/01 11:29:39;;;;;;;8.90;5.82;;;26.80;63.20;;;;;;7403999;19;19942;-73
2023/07/01 11:32:12;;;;;;;9.45;5.68;;;26.40;63.80;;;;;;7350289;19;19946;-73
2023/07/01 11:34:39;;;;;;;10.35;5.35;;;26.80;63.40;;;;;;7404563;19;19926;-72
2023/07/01 11:37:05;;;;;;;10.07;6.65;;;27.00;62.30;;;;;;7402624;19;19926;-72
2023/07/01 11:39:31;;;;;;;10.48;6.35;;;27.20;62.60;;;;;;7405989;19;19915;-73
2023/07/01 11:42:02;;;;;;;10.43;5.45;;;27.70;62.10;;;;;;7399762;19;19935;-73
2023/07/01 11:44:31;;;;;;;8.45;5.55;;;27.60;60.60;;;;;;7404523;19;19919;-72
2023/07/01 11:46:56;;;;;;;10.82;5.47;;;28.00;61.60;;;;;;7405049;19;19946;-73
2023/07/01 11:49:29;;;;;;;8.25;5.97;;;28.10;60.40;;;;;;7403850;19;19951;-73
2023/07/01 11:52:01;;;;;;;9.38;5.88;;;28.00;59.80;;;;;;7404740;19;19951;-73
2023/07/01 11:54:39;;;;;;;10.93;5.45;;;27.70;61.50;;;;;;7404011;19;19938;-73
2023/07/01 11:57:16;;;;;;;8.52;6.43;;;28.30;59.80;;;;;;7399472;19;19934;-71
2023/07/01 11:59:52;;;;;;;11.13;5.65;;;27.60;61.20;;;;;;7404428;19;19914;-73
2023/07/01 12:02:26;;;;;;;8.63;6.00;;;27.00;62.50;;;;;;7402453;19;19994;-72
2023/07/01 12:04:52;;;;;;;9.25;5.55;;;27.30;61.60;;;;;;7405104;19;20768;-72
2023/07/01 12:07:18;;;;;;;12.35;6.43;;;27.70;61.10;;;;;;7402201;19;19929;-73
2023/07/01 12:09:45;;;;;;;14.43;5.60;;;28.00;60.90;;;;;;7404102;19;19922;-74
2023/07/01 12:12:18;;;;;;;9.45;5.85;;;27.90;59.70;;;;;;7350039;19;20003;-72
2023/07/01 12:14:45;;;;;;;10.10;6.03;;;27.40;59.80;;;;;;7347681;19;19918;-73
2023/07/01 12:17:30;;;;;;;8.70;5.60;;;27.80;59.80;;;;;;7400150;19;19921;-73
2023/07/01 12:20:01;;;;;;;8.32;5.18;;;28.00;59.10;;;;;;7380057;19;19918;-73
2023/07/01 12:22:27;;;;;;;12.55;4.88;;;27.60;59.30;;;;;;7398241;19;19974;-73
2023/07/01 12:24:58;;;;;;;8.13;5.72;;;28.40;59.40;;;;;;7404026;19;19934;-74
2023/07/01 12:27:24;;;;;;;9.98;5.43;;;28.70;57.00;;;;;;7401905;19;19923;-74
2023/07/01 12:29:50;;;;;;;8.82;6.03;;;28.60;56.70;;;;;;7403298;19;19923;-73
2023/07/01 12:32:16;;;;;;;;;;;28.20;58.10;;;;;;7404846;19;19942;-73
2023/07/01 12:34:42;;;;;;;10.35;5.50;;;27.70;59.50;;;;;;7401488;19;19907;-73
2023/07/01 12:37:09;;;;;;;10.02;5.75;;;28.60;58.50;;;;;;7402574;19;19918;-74
2023/07/01 12:39:37;;;;;;;8.95;4.82;;;29.30;57.10;;;;;;7395386;19;19951;-73
2023/07/01 12:42:04;;;;;;;10.07;6.32;;;28.30;57.50;;;;;;7381345;19;19922;-73
2023/07/01 12:44:30;;;;;;;8.30;6.20;;;28.00;59.40;;;;;;7384371;19;19918;-73
2023/07/01 12:46:55;;;;;;;;;;;28.20;59.20;;;;;;7395657;19;19934;-74
2023/07/01 12:49:21;;;;;;;8.20;5.47;;;27.60;58.30;;;;;;7393157;19;20956;-74
2023/07/01 12:51:47;;;;;;;10.98;5.93;;;28.60;58.30;;;;;;7390152;19;19907;-74